createdAt,value
2024-03-04T00:02:18.774Z,25.35
2024-03-04T00:04:45.804Z,28.55
2024-03-04T00:07:13.892Z,24.02
2024-03-04T00:09:41.236Z,27.55
2024-03-04T00:12:08.434Z,25.00
2024-03-04T00:14:35.928Z,31.08
2024-03-04T00:17:02.930Z,23.10
2024-03-04T00:19:30.305Z,27.80
2024-03-04T00:21:57.549Z,26.33
2024-03-04T00:24:24.676Z,31.73
2024-03-04T00:26:51.653Z,29.05
2024-03-04T00:29:19.082Z,31.88
2024-03-04T00:31:46.282Z,37.25
2024-03-04T00:34:13.917Z,41.75
2024-03-04T00:36:40.918Z,37.65
2024-03-04T00:39:10.704Z,57.95
2024-03-04T00:41:37.752Z,47.20
2024-03-04T00:44:04.920Z,63.30
2024-03-04T00:46:32.532Z,58.92
2024-03-04T00:48:59.597Z,49.83
2024-03-04T00:51:26.541Z,61.70
2024-03-04T00:53:53.447Z,62.25
2024-03-04T00:56:21.000Z,73.57
2024-03-04T00:58:49.365Z,69.10
2024-03-04T01:01:16.469Z,60.67
2024-03-04T01:03:43.558Z,76.72
2024-03-04T01:06:10.499Z,67.88
2024-03-04T01:08:37.462Z,68.70
2024-03-04T01:11:04.649Z,73.60
2024-03-04T01:13:32.446Z,64.88
2024-03-04T01:15:59.520Z,55.45
2024-03-04T01:18:26.530Z,61.20
2024-03-04T01:20:54.119Z,60.13
2024-03-04T01:23:21.054Z,61.38
2024-03-04T01:25:48.081Z,55.20
2024-03-04T01:28:15.124Z,62.42
2024-03-04T01:30:42.109Z,55.60
2024-03-04T01:33:09.039Z,58.70
2024-03-04T01:35:36.094Z,56.72
2024-03-04T01:38:03.145Z,54.50
2024-03-04T01:40:31.610Z,57.10
2024-03-04T01:42:59.058Z,65.45
2024-03-04T01:45:27.838Z,51.55
2024-03-04T01:47:57.507Z,58.72
2024-03-04T01:50:28.139Z,58.15
2024-03-04T01:53:00.636Z,55.42
2024-03-04T01:55:35.771Z,53.70
2024-03-04T01:58:05.464Z,46.75
2024-03-04T02:00:35.848Z,46.92
2024-03-04T02:03:03.854Z,51.17
2024-03-04T02:05:31.439Z,49.65
2024-03-04T02:07:59.744Z,52.25
2024-03-04T02:10:27.539Z,54.00
2024-03-04T02:12:55.871Z,46.15
2024-03-04T02:15:22.830Z,43.70
2024-03-04T02:17:49.912Z,39.20
2024-03-04T02:20:18.222Z,47.58
2024-03-04T02:22:45.378Z,38.47
2024-03-04T02:25:13.075Z,42.22
2024-03-04T02:27:40.240Z,39.53
2024-03-04T02:30:09.092Z,41.40
2024-03-04T02:32:37.225Z,34.88
2024-03-04T02:35:05.696Z,39.78
2024-03-04T02:37:34.043Z,33.90
2024-03-04T02:40:03.490Z,33.42
2024-03-04T02:42:32.382Z,36.53
2024-03-04T02:44:59.467Z,31.55
2024-03-04T02:47:26.775Z,31.80
2024-03-04T02:49:53.679Z,34.38
2024-03-04T02:52:20.664Z,31.83
2024-03-04T02:54:47.655Z,36.92
2024-03-04T02:57:16.306Z,27.10
2024-03-04T02:59:44.030Z,36.55
2024-03-04T03:02:11.030Z,31.52
2024-03-04T03:04:38.058Z,28.50
2024-03-04T03:07:05.449Z,30.15
2024-03-04T03:09:32.397Z,30.60
2024-03-04T03:12:00.697Z,31.52
2024-03-04T03:14:28.290Z,30.65
2024-03-04T03:16:55.246Z,34.10
2024-03-04T03:19:27.337Z,29.05
2024-03-04T03:21:54.801Z,35.70
2024-03-04T03:24:22.063Z,28.98
2024-03-04T03:26:49.116Z,37.53
2024-03-04T03:29:17.062Z,29.98
2024-03-04T03:31:44.361Z,26.00
2024-03-04T03:34:11.605Z,25.25
2024-03-04T03:36:42.639Z,27.20
2024-03-04T03:39:10.928Z,25.05
2024-03-04T03:41:38.408Z,25.60
2024-03-04T03:44:05.827Z,21.83
2024-03-04T03:46:32.925Z,31.83
2024-03-04T03:48:59.921Z,28.10
2024-03-04T03:51:27.043Z,26.83
2024-03-04T03:53:54.066Z,28.88
2024-03-04T03:56:21.133Z,27.45
2024-03-04T03:58:51.486Z,24.85
2024-03-04T04:01:19.518Z,26.02
2024-03-04T04:03:46.495Z,25.38
2024-03-04T04:06:13.502Z,22.27
2024-03-04T04:08:43.438Z,24.55
2024-03-04T04:11:10.762Z,27.95
2024-03-04T04:13:37.738Z,26.15
2024-03-04T04:16:05.307Z,23.80
2024-03-04T04:18:32.296Z,19.15
2024-03-04T04:20:59.313Z,20.02
2024-03-04T04:23:27.072Z,22.40
2024-03-04T04:25:54.080Z,19.48
2024-03-04T04:28:21.165Z,17.08
2024-03-04T04:30:48.260Z,23.25
2024-03-04T04:33:15.220Z,20.35
2024-03-04T04:35:42.127Z,26.98
2024-03-04T04:38:09.149Z,20.05
2024-03-04T04:40:36.232Z,23.48
2024-03-04T04:43:03.436Z,21.00
2024-03-04T04:45:30.521Z,23.77
2024-03-04T04:47:58.148Z,21.35
2024-03-04T04:50:25.328Z,18.40
2024-03-04T04:52:52.282Z,20.08
2024-03-04T04:55:19.590Z,22.38
2024-03-04T04:57:46.586Z,20.10
2024-03-04T05:00:14.354Z,25.75
2024-03-04T05:02:42.104Z,21.90
2024-03-04T05:05:09.766Z,20.35
2024-03-04T05:07:37.886Z,23.73
2024-03-04T05:10:06.052Z,18.20
2024-03-04T05:12:34.218Z,19.17
2024-03-04T05:15:01.299Z,22.85
2024-03-04T05:17:29.469Z,18.00
2024-03-04T05:19:56.425Z,22.70
2024-03-04T05:22:23.419Z,19.33
2024-03-04T05:24:50.547Z,24.15
2024-03-04T05:27:17.533Z,22.10
2024-03-04T05:29:44.500Z,22.33
2024-03-04T05:32:11.423Z,21.45
2024-03-04T05:34:41.561Z,22.80
2024-03-04T05:37:08.686Z,14.98
2024-03-04T05:39:35.742Z,26.27
2024-03-04T05:42:02.755Z,18.20
2024-03-04T05:44:29.700Z,18.95
2024-03-04T05:46:56.654Z,24.33
2024-03-04T05:49:24.525Z,18.50
2024-03-04T05:51:53.326Z,19.83
2024-03-04T05:54:20.292Z,18.75
2024-03-04T05:56:47.925Z,16.05
2024-03-04T05:59:15.005Z,15.50
2024-03-04T06:01:43.783Z,15.50
2024-03-04T06:04:11.150Z,20.30
2024-03-04T06:06:38.372Z,15.23
2024-03-04T06:09:09.035Z,20.33
2024-03-04T06:11:36.149Z,22.60
2024-03-04T06:14:03.133Z,15.77
2024-03-04T06:16:30.131Z,18.63
2024-03-04T06:18:57.128Z,20.05
2024-03-04T06:21:24.060Z,19.17
2024-03-04T06:23:50.965Z,22.50
2024-03-04T06:26:19.468Z,18.80
2024-03-04T06:28:46.727Z,19.95
2024-03-04T06:31:13.825Z,12.23
2024-03-04T06:33:48.896Z,14.43
2024-03-04T06:36:21.400Z,21.95
2024-03-04T06:38:52.482Z,11.27
2024-03-04T06:41:19.739Z,16.67
2024-03-04T06:43:47.338Z,16.27
2024-03-04T06:46:14.830Z,11.27
2024-03-04T06:48:42.656Z,9.25
2024-03-04T06:51:10.002Z,16.35
2024-03-04T06:53:40.069Z,17.13
2024-03-04T06:58:51.444Z,14.15
2024-03-04T07:01:18.823Z,12.75
2024-03-04T07:03:46.589Z,18.90
2024-03-04T07:06:15.057Z,11.45
2024-03-04T07:08:42.639Z,14.10
2024-03-04T07:11:16.794Z,21.55
2024-03-04T07:13:44.721Z,18.67
2024-03-04T07:16:17.093Z,15.57
2024-03-04T07:18:44.758Z,11.13
2024-03-04T07:21:18.395Z,13.20
2024-03-04T07:23:45.667Z,15.45
2024-03-04T07:26:15.901Z,13.45
2024-03-04T07:28:44.858Z,15.98
2024-03-04T07:31:12.874Z,14.98
2024-03-04T07:33:40.189Z,13.60
2024-03-04T07:36:12.181Z,14.20
2024-03-04T07:38:44.463Z,11.73
2024-03-04T07:41:11.878Z,9.98
2024-03-04T07:43:41.604Z,9.35
2024-03-04T07:46:09.173Z,13.43
2024-03-04T07:48:36.566Z,7.55
2024-03-04T07:51:04.330Z,6.78
2024-03-04T07:53:31.378Z,8.13
2024-03-04T07:55:58.872Z,6.70
2024-03-04T07:58:26.488Z,7.47
2024-03-04T08:00:53.820Z,6.63
2024-03-04T08:03:21.093Z,10.05
2024-03-04T08:05:50.290Z,5.28
2024-03-04T08:08:21.826Z,7.65
2024-03-04T08:10:50.203Z,5.25
2024-03-04T08:13:17.561Z,5.55
2024-03-04T08:15:44.976Z,4.90
2024-03-04T08:18:12.581Z,9.48
2024-03-04T08:20:39.984Z,6.50
2024-03-04T08:23:07.589Z,7.55
2024-03-04T08:25:34.723Z,6.03
2024-03-04T08:28:02.114Z,8.98
2024-03-04T08:30:29.830Z,6.97
2024-03-04T08:32:57.395Z,4.82
2024-03-04T08:35:24.652Z,3.80
2024-03-04T08:37:52.120Z,6.18
2024-03-04T08:40:19.625Z,5.65
2024-03-04T08:42:47.942Z,11.82
2024-03-04T08:45:17.523Z,3.85
2024-03-04T08:47:45.205Z,4.03
2024-03-04T08:50:12.618Z,5.72
2024-03-04T08:52:40.060Z,5.38
2024-03-04T08:55:08.251Z,7.82
2024-03-04T08:57:35.382Z,4.72
2024-03-04T09:00:02.813Z,8.45
2024-03-04T09:02:30.556Z,4.65
2024-03-04T09:04:57.812Z,6.53
2024-03-04T09:07:29.779Z,5.28
2024-03-04T09:09:57.236Z,4.90
2024-03-04T09:12:27.236Z,6.82
2024-03-04T09:14:54.462Z,6.65
2024-03-04T09:17:22.561Z,6.32
2024-03-04T09:19:49.872Z,5.68
2024-03-04T09:22:17.226Z,4.97
2024-03-04T09:24:44.723Z,6.05
2024-03-04T09:27:12.290Z,4.47
2024-03-04T09:29:39.554Z,3.78
2024-03-04T09:32:07.248Z,6.57
2024-03-04T09:34:34.607Z,7.00
2024-03-04T09:37:03.119Z,6.68
2024-03-04T09:39:30.436Z,9.02
2024-03-04T09:41:58.108Z,3.70
2024-03-04T09:44:28.898Z,3.28
2024-03-04T09:46:59.351Z,5.00
2024-03-04T09:49:32.392Z,7.63
2024-03-04T09:52:01.010Z,4.70
2024-03-04T09:54:36.927Z,6.00
2024-03-04T09:57:06.153Z,2.80
2024-03-04T09:59:33.929Z,7.10
2024-03-04T10:02:03.067Z,5.05
2024-03-04T10:04:31.634Z,6.00
2024-03-04T10:07:02.335Z,4.05
2024-03-04T10:09:31.692Z,6.38
2024-03-04T10:12:03.975Z,6.32
2024-03-04T10:14:32.391Z,4.38
2024-03-04T10:16:59.713Z,3.45
2024-03-04T10:19:26.811Z,2.15
2024-03-04T10:21:56.521Z,3.60
2024-03-04T10:24:23.862Z,4.50
2024-03-04T10:26:51.579Z,3.92
2024-03-04T10:29:23.224Z,3.75
2024-03-04T10:31:54.694Z,2.97
2024-03-04T10:34:22.877Z,4.78
2024-03-04T10:36:52.932Z,9.93
2024-03-04T10:39:20.352Z,7.72
2024-03-04T10:41:48.943Z,5.15
2024-03-04T10:44:27.709Z,4.72
2024-03-04T10:47:00.580Z,4.82
2024-03-04T10:49:30.952Z,3.22
2024-03-04T10:52:08.512Z,5.30
2024-03-04T10:54:47.416Z,5.03
2024-03-04T10:57:30.338Z,4.30
2024-03-04T11:00:27.791Z,2.75
2024-03-04T11:03:03.614Z,7.20
2024-03-04T11:08:21.389Z,4.45
2024-03-04T11:10:51.334Z,3.00
2024-03-04T11:13:29.816Z,3.90
2024-03-04T11:15:59.597Z,4.82
2024-03-04T11:18:42.004Z,5.18
2024-03-04T11:21:10.784Z,3.20
2024-03-04T11:23:38.637Z,4.32
2024-03-04T11:26:07.484Z,5.88
2024-03-04T11:28:36.331Z,7.40
2024-03-04T11:31:23.482Z,3.88
2024-03-04T11:34:06.852Z,5.60
2024-03-04T11:36:34.431Z,3.58
2024-03-04T11:39:15.298Z,5.10
2024-03-04T11:41:49.003Z,5.25
2024-03-04T11:44:25.593Z,3.35
2024-03-04T11:46:53.998Z,4.93
2024-03-04T11:49:33.720Z,5.40
2024-03-04T11:52:21.497Z,4.20
2024-03-04T11:54:50.141Z,3.45
2024-03-04T11:57:18.473Z,5.60
2024-03-04T12:00:11.561Z,4.32
2024-03-04T12:02:38.988Z,2.45
2024-03-04T12:05:07.317Z,3.55
2024-03-04T12:07:34.823Z,2.80
2024-03-04T12:10:12.326Z,6.13
2024-03-04T12:12:44.753Z,1.90
2024-03-04T12:15:12.479Z,1.38
2024-03-04T12:17:41.023Z,5.13
2024-03-04T12:20:09.961Z,3.63
2024-03-04T12:22:39.763Z,3.55
2024-03-04T12:25:10.948Z,2.03
2024-03-04T12:27:42.960Z,2.00
2024-03-04T12:30:15.565Z,5.25
2024-03-04T12:32:44.064Z,1.50
2024-03-04T12:35:27.553Z,2.58
2024-03-04T12:38:03.276Z,3.97
2024-03-04T12:43:04.818Z,1.55
2024-03-04T12:45:33.939Z,2.72
2024-03-04T12:48:01.922Z,2.08
2024-03-04T12:50:30.928Z,1.15
2024-03-04T12:52:59.373Z,5.32
2024-03-04T12:55:27.522Z,4.35
2024-03-04T12:57:58.154Z,3.42
2024-03-04T13:00:26.340Z,2.45
2024-03-04T13:02:53.800Z,4.25
2024-03-04T13:05:20.994Z,2.72
2024-03-04T13:07:48.507Z,1.67
2024-03-04T13:10:17.158Z,1.10
2024-03-04T13:12:46.478Z,2.72
2024-03-04T13:15:13.949Z,1.20
2024-03-04T13:17:44.065Z,1.48
2024-03-04T13:20:14.862Z,4.97
2024-03-04T13:22:49.422Z,1.60
2024-03-04T13:25:21.265Z,2.75
2024-03-04T13:27:49.069Z,2.88
2024-03-04T13:30:17.113Z,2.50
2024-03-04T13:32:46.305Z,4.85
2024-03-04T13:35:13.719Z,1.45
2024-03-04T13:37:41.371Z,1.15
2024-03-04T13:40:11.811Z,1.48
2024-03-04T13:42:39.707Z,1.60
2024-03-04T13:45:08.602Z,6.55
2024-03-04T13:47:37.215Z,1.48
2024-03-04T13:50:05.259Z,4.32
2024-03-04T13:52:32.959Z,1.33
2024-03-04T13:55:01.158Z,2.55
2024-03-04T13:57:28.805Z,4.03
2024-03-04T13:59:55.992Z,3.88
2024-03-04T14:02:23.299Z,1.42
2024-03-04T14:04:50.771Z,1.88
2024-03-04T14:07:18.113Z,5.68
2024-03-04T14:09:45.349Z,2.65
2024-03-04T14:12:12.556Z,3.65
2024-03-04T14:14:39.898Z,4.20
2024-03-04T14:17:07.323Z,2.22
2024-03-04T14:19:34.678Z,1.80
2024-03-04T14:22:02.140Z,2.00
2024-03-04T14:24:29.865Z,3.08
2024-03-04T14:26:58.140Z,1.85
2024-03-04T14:29:25.412Z,1.95
2024-03-04T14:31:53.609Z,2.67
2024-03-04T14:34:21.202Z,1.45
2024-03-04T14:36:49.711Z,2.50
2024-03-04T14:39:17.196Z,2.05
2024-03-04T14:41:44.774Z,2.05
2024-03-04T14:44:11.914Z,1.08
2024-03-04T14:46:42.469Z,0.70
2024-03-04T14:49:11.247Z,1.48
2024-03-04T14:51:38.635Z,3.03
2024-03-04T14:54:06.087Z,1.17
2024-03-04T14:56:33.209Z,2.22
2024-03-04T14:59:03.027Z,2.55
2024-03-04T15:01:30.254Z,0.57
2024-03-04T15:03:57.648Z,5.70
2024-03-04T15:06:24.829Z,0.57
2024-03-04T15:08:52.185Z,2.13
2024-03-04T15:11:19.813Z,2.22
2024-03-04T15:13:47.601Z,1.50
2024-03-04T15:16:14.948Z,1.13
2024-03-04T15:18:42.296Z,1.77
2024-03-04T15:21:10.485Z,2.83
2024-03-04T15:23:37.697Z,3.75
2024-03-04T15:26:05.524Z,0.80
2024-03-04T15:28:33.451Z,0.70
2024-03-04T15:31:01.338Z,1.85
2024-03-04T15:33:30.320Z,2.60
2024-03-04T15:36:09.752Z,1.58
2024-03-04T15:38:45.016Z,1.42
2024-03-04T15:41:12.362Z,3.95
2024-03-04T15:43:39.868Z,4.40
2024-03-04T15:46:08.231Z,5.43
2024-03-04T15:48:35.387Z,3.20
2024-03-04T15:51:02.747Z,5.75
2024-03-04T15:53:30.111Z,2.65
2024-03-04T15:55:57.415Z,4.38
2024-03-04T15:58:26.073Z,5.88
2024-03-04T16:00:54.047Z,4.43
2024-03-04T16:03:21.126Z,2.67
2024-03-04T16:05:48.383Z,4.30
2024-03-04T16:08:15.877Z,2.88
2024-03-04T16:10:43.001Z,6.25
2024-03-04T16:13:10.236Z,7.55
2024-03-04T16:15:44.829Z,5.25
2024-03-04T16:18:19.079Z,4.10
2024-03-04T16:20:46.172Z,6.13
2024-03-04T16:23:13.623Z,3.13
2024-03-04T16:25:40.858Z,4.28
2024-03-04T16:28:08.811Z,4.90
2024-03-04T16:30:36.297Z,3.13
2024-03-04T16:33:06.105Z,3.90
2024-03-04T16:35:33.930Z,4.45
2024-03-04T16:38:01.129Z,2.40
2024-03-04T16:40:28.738Z,3.25
2024-03-04T16:42:55.745Z,5.50
2024-03-04T16:45:23.101Z,3.08
2024-03-04T16:47:50.851Z,2.75
2024-03-04T16:50:18.814Z,3.13
2024-03-04T16:52:46.389Z,4.97
2024-03-04T16:55:13.893Z,4.78
2024-03-04T16:57:41.131Z,3.28
2024-03-04T17:00:12.242Z,8.80
2024-03-04T17:02:39.628Z,3.78
2024-03-04T17:05:11.464Z,3.33
2024-03-04T17:07:44.900Z,4.47
2024-03-04T17:10:14.991Z,3.00
2024-03-04T17:12:42.421Z,7.40
2024-03-04T17:15:12.520Z,3.80
2024-03-04T17:17:41.100Z,6.68
2024-03-04T17:20:11.942Z,3.20
2024-03-04T17:22:39.785Z,5.18
2024-03-04T17:25:07.550Z,7.55
2024-03-04T17:27:35.103Z,3.85
2024-03-04T17:30:02.771Z,2.92
2024-03-04T17:32:31.102Z,3.58
2024-03-04T17:34:58.732Z,5.97
2024-03-04T17:37:26.408Z,6.95
2024-03-04T17:39:53.516Z,2.92
2024-03-04T17:42:20.963Z,4.55
2024-03-04T17:44:48.069Z,3.33
2024-03-04T17:47:15.415Z,5.57
2024-03-04T17:49:48.975Z,9.38
2024-03-04T17:52:16.787Z,3.35
2024-03-04T17:54:44.052Z,3.47
2024-03-04T17:57:11.134Z,6.30
2024-03-04T17:59:41.992Z,2.60
2024-03-04T18:02:10.182Z,7.32
2024-03-04T18:04:38.062Z,3.90
2024-03-04T18:07:05.374Z,1.73
2024-03-04T18:09:32.807Z,3.95
2024-03-04T18:11:59.924Z,3.47
2024-03-04T18:14:27.207Z,1.77
2024-03-04T18:16:54.393Z,3.72
2024-03-04T18:19:21.525Z,1.55
2024-03-04T18:21:48.627Z,1.88
2024-03-04T18:24:15.770Z,2.60
2024-03-04T18:26:46.474Z,4.50
2024-03-04T18:29:13.674Z,6.72
2024-03-04T18:31:40.828Z,5.47
2024-03-04T18:34:07.934Z,2.78
2024-03-04T18:36:35.048Z,3.60
2024-03-04T18:39:02.567Z,3.90
2024-03-04T18:41:29.637Z,6.15
2024-03-04T18:43:56.884Z,3.33
2024-03-04T18:46:23.991Z,5.13
2024-03-04T18:48:51.085Z,2.53
2024-03-04T18:51:18.135Z,4.90
2024-03-04T18:53:45.181Z,5.22
2024-03-04T18:56:13.608Z,1.88
2024-03-04T18:58:41.491Z,3.75
2024-03-04T19:01:13.478Z,5.55
2024-03-04T19:03:41.759Z,7.57
2024-03-04T19:06:09.014Z,5.70
2024-03-04T19:08:36.308Z,5.47
2024-03-04T19:11:08.823Z,3.97
2024-03-04T19:13:42.426Z,9.10
2024-03-04T19:16:09.831Z,3.63
2024-03-04T19:18:38.267Z,3.13
2024-03-04T19:21:07.905Z,3.60
2024-03-04T19:23:37.590Z,4.88
2024-03-04T19:26:06.082Z,9.75
2024-03-04T19:28:34.136Z,3.85
2024-03-04T19:31:02.577Z,8.07
2024-03-04T19:33:31.646Z,5.05
2024-03-04T19:35:59.240Z,5.60
2024-03-04T19:38:26.516Z,4.60
2024-03-04T19:40:53.676Z,3.17
2024-03-04T19:43:20.821Z,5.30
2024-03-04T19:45:48.548Z,2.83
2024-03-04T19:48:15.731Z,3.35
2024-03-04T19:50:42.751Z,3.88
2024-03-04T19:53:09.992Z,5.15
2024-03-04T19:55:37.190Z,4.65
2024-03-04T19:58:04.680Z,5.45
2024-03-04T20:00:32.271Z,4.82
2024-03-04T20:03:00.202Z,4.18
2024-03-04T20:05:27.387Z,3.47
2024-03-04T20:07:54.687Z,4.65
2024-03-04T20:10:22.059Z,7.20
2024-03-04T20:12:50.180Z,3.55
2024-03-04T20:15:17.325Z,3.90
2024-03-04T20:17:47.046Z,3.95
2024-03-04T20:20:15.226Z,6.80
2024-03-04T20:22:42.609Z,3.45
2024-03-04T20:25:10.855Z,4.05
2024-03-04T20:27:38.281Z,6.65
2024-03-04T20:30:06.927Z,6.53
2024-03-04T20:32:34.026Z,2.40
2024-03-04T20:35:01.092Z,2.38
2024-03-04T20:37:30.437Z,3.45
2024-03-04T20:39:57.707Z,2.83
2024-03-04T20:42:24.901Z,4.40
2024-03-04T20:44:52.231Z,3.38
2024-03-04T20:47:19.915Z,3.70
2024-03-04T20:49:47.565Z,5.10
2024-03-04T20:52:14.748Z,2.90
2024-03-04T20:54:41.820Z,2.67
2024-03-04T20:57:08.990Z,2.30
2024-03-04T20:59:36.113Z,5.55
2024-03-04T21:02:03.443Z,3.17
2024-03-04T21:04:30.693Z,6.47
2024-03-04T21:06:58.426Z,4.15
2024-03-04T21:09:25.572Z,2.67
2024-03-04T21:11:53.986Z,3.85
2024-03-04T21:14:21.456Z,2.67
2024-03-04T21:16:49.124Z,7.10
2024-03-04T21:19:16.660Z,6.00
2024-03-04T21:21:44.499Z,5.15
2024-03-04T21:24:11.656Z,1.58
2024-03-04T21:26:38.734Z,2.13
2024-03-04T21:29:07.166Z,6.07
2024-03-04T21:31:34.418Z,3.70
2024-03-04T21:34:01.545Z,5.75
2024-03-04T21:36:28.698Z,1.85
2024-03-04T21:38:55.784Z,7.00
2024-03-04T21:41:22.827Z,2.25
2024-03-04T21:43:50.273Z,4.28
2024-03-04T21:46:17.441Z,2.03
2024-03-04T21:48:44.595Z,1.40
2024-03-04T21:51:11.680Z,4.13
2024-03-04T21:53:38.686Z,1.55
2024-03-04T21:56:09.212Z,4.45
2024-03-04T21:58:36.721Z,3.30
2024-03-04T22:01:05.127Z,4.50
2024-03-04T22:03:32.542Z,3.83
2024-03-04T22:05:59.775Z,4.00
2024-03-04T22:08:27.195Z,1.80
2024-03-04T22:10:54.402Z,2.75
2024-03-04T22:13:22.259Z,2.28
2024-03-04T22:15:49.484Z,3.70
2024-03-04T22:18:16.581Z,7.28
2024-03-04T22:20:43.951Z,3.22
2024-03-04T22:23:11.916Z,3.75
2024-03-04T22:25:39.160Z,4.00
2024-03-04T22:28:07.273Z,3.00
2024-03-04T22:30:35.650Z,2.00
2024-03-04T22:33:02.880Z,4.38
2024-03-04T22:35:30.014Z,4.03
2024-03-04T22:37:57.287Z,3.20
2024-03-04T22:40:24.621Z,5.80
2024-03-04T22:42:51.975Z,3.70
2024-03-04T22:45:19.158Z,3.47
2024-03-04T22:47:46.446Z,2.45
2024-03-04T22:50:13.581Z,1.77
2024-03-04T22:52:40.828Z,3.20
2024-03-04T22:55:09.369Z,2.92
2024-03-04T22:57:36.623Z,4.88
2024-03-04T23:00:09.930Z,6.07
2024-03-04T23:02:38.591Z,4.75
2024-03-04T23:05:06.581Z,5.82
2024-03-04T23:07:33.907Z,3.80
2024-03-04T23:10:00.952Z,6.07
2024-03-04T23:12:28.944Z,1.80
2024-03-04T23:14:55.955Z,3.85
2024-03-04T23:17:23.038Z,4.40
2024-03-04T23:19:51.341Z,4.10
2024-03-04T23:22:18.416Z,3.65
2024-03-04T23:24:45.363Z,5.45
2024-03-04T23:27:12.295Z,4.57
2024-03-04T23:29:39.455Z,5.72
2024-03-04T23:32:09.141Z,7.78
2024-03-04T23:34:36.188Z,3.75
2024-03-04T23:37:05.783Z,4.97
2024-03-04T23:39:32.714Z,3.15
2024-03-04T23:41:59.887Z,4.32
2024-03-04T23:44:26.846Z,7.47
2024-03-04T23:46:53.973Z,6.18
2024-03-04T23:49:21.341Z,6.13
2024-03-04T23:51:50.296Z,3.95
2024-03-04T23:54:17.462Z,4.75
2024-03-04T23:56:44.446Z,3.70
2024-03-04T23:59:11.359Z,6.10
